Time;durP1;ratioP1;P1;durP2;ratioP2;P2;SDS_P1;SDS_P2;PMS_P1;PMS_P2;Temp;Humidity;BMP_temperature;BMP_pressure;BME280_temperature;BME280_humidity;BME280_pressure;Samples;Min_cycle;Max_cycle;Signal;HPM_P1;HPM_P2
2022/01/28 00:01:02;;;;;;;3.90;2.97;;;;;;;3.13;100.00;96089.22;5137336;28;20274;-65
2022/01/28 00:03:27;;;;;;;3.67;2.80;;;;;;;3.13;100.00;96095.41;5118716;28;20199;-62
2022/01/28 00:05:53;;;;;;;3.83;2.87;;;;;;;3.08;100.00;96101.03;5118828;28;20209;-64
2022/01/28 00:08:18;;;;;;;4.17;3.00;;;;;;;3.13;100.00;96106.19;5118871;28;20226;-63
2022/01/28 00:10:44;;;;;;;4.70;3.07;;;;;;;3.12;100.00;96107.31;5119110;28;20720;-64
2022/01/28 00:13:19;;;;;;;4.10;3.03;;;;;;;3.12;100.00;96110.03;5119345;28;20278;-64
2022/01/28 00:36:29;;;;;;;4.57;3.17;;;;;;;3.07;100.00;96118.31;5137481;28;20197;-52
2022/01/28 00:40:15;;;;;;;4.33;3.03;;;;;;;3.15;100.00;96125.53;5136497;28;20190;-53
2022/01/28 00:42:41;;;;;;;5.73;3.90;;;;;;;3.09;100.00;96126.09;5118384;28;20678;-49
2022/01/28 00:45:07;;;;;;;4.67;3.53;;;;;;;3.09;100.00;96126.09;5118365;28;20188;-49
2022/01/28 00:47:32;;;;;;;4.93;3.53;;;;;;;3.11;100.00;96140.84;5118357;28;20541;-49
2022/01/28 00:49:58;;;;;;;4.83;3.67;;;;;;;3.10;100.00;96139.25;5117886;28;20195;-52
2022/01/28 00:52:23;;;;;;;4.27;3.00;;;;;;;3.11;100.00;96124.66;5118518;28;20201;-58
2022/01/28 00:54:48;;;;;;;4.43;3.53;;;;;;;3.07;100.00;96133.75;5118758;28;20187;-47
2022/01/28 00:57:14;;;;;;;4.60;3.50;;;;;;;3.07;100.00;96139.91;5118397;28;20191;-47
2022/01/28 00:59:39;;;;;;;5.20;3.83;;;;;;;3.07;100.00;96139.91;5118088;28;20187;-45
2022/01/28 01:02:04;;;;;;;4.33;3.50;;;;;;;3.07;100.00;96141.84;5117985;28;20198;-46
2022/01/28 01:04:30;;;;;;;3.97;3.57;;;;;;;3.06;100.00;96145.66;5117941;27;20190;-46
2022/01/28 01:06:55;;;;;;;4.27;3.37;;;;;;;3.06;100.00;96148.38;5117463;28;20179;-45
2022/01/28 01:09:20;;;;;;;4.90;3.43;;;;;;;3.01;100.00;96152.06;5117993;28;20213;-58
2022/01/28 01:11:46;;;;;;;5.13;3.60;;;;;;;2.94;100.00;96149.13;5118001;28;20596;-63
2022/01/28 01:14:12;;;;;;;5.10;3.73;;;;;;;2.94;100.00;96141.03;5118286;28;20214;-63
2022/01/28 01:19:24;;;;;;;5.77;3.90;;;;;;;2.86;100.00;96160.81;5136329;28;20224;-63
2022/01/28 01:21:55;;;;;;;5.03;3.57;;;;;;;2.84;100.00;96167.66;5118285;28;20275;-63
2022/01/28 01:24:23;;;;;;;5.03;3.83;;;;;;;2.85;100.00;96175.41;5118134;28;20186;-63
2022/01/28 01:26:48;;;;;;;5.10;4.00;;;;;;;2.86;100.00;96184.28;5118062;28;20187;-66
2022/01/28 01:29:16;;;;;;;4.40;3.73;;;;;;;2.88;100.00;96182.81;5118024;28;20243;-48
2022/01/28 01:31:43;;;;;;;5.50;3.90;;;;;;;2.86;100.00;96189.69;5117636;28;20179;-45
2022/01/28 01:34:15;;;;;;;5.13;4.00;;;;;;;2.88;100.00;96185.53;5117557;28;20175;-47
2022/01/28 01:36:41;;;;;;;6.33;4.27;;;;;;;2.83;100.00;96183.03;5117402;28;20186;-47
2022/01/28 01:39:09;;;;;;;5.57;4.83;;;;;;;2.88;100.00;96185.53;5117422;28;20679;-46
2022/01/28 01:41:40;;;;;;;6.70;4.43;;;;;;;2.79;100.00;96171.34;5117308;28;20191;-45
2022/01/28 01:46:58;;;;;;;8.00;4.63;;;;;;;2.67;100.00;96167.84;5135562;28;20274;-65
2022/01/28 01:52:07;;;;;;;7.87;4.53;;;;;;;2.52;100.00;96177.34;5135709;28;20197;-58
2022/01/28 01:54:39;;;;;;;7.67;4.77;;;;;;;2.50;100.00;96184.97;5117650;28;20183;-57
2022/01/28 01:57:08;;;;;;;5.77;4.33;;;;;;;2.45;100.00;96190.56;5117327;28;20186;-57
2022/01/28 01:59:33;;;;;;;6.20;4.40;;;;;;;2.42;100.00;96193.94;5116924;28;20185;-58
2022/01/28 02:01:59;;;;;;;6.03;4.33;;;;;;;2.32;100.00;96205.13;5117198;28;20203;-57
2022/01/28 02:04:24;;;;;;;7.77;5.03;;;;;;;2.29;100.00;96195.00;5117074;28;20194;-57
2022/01/28 02:06:50;;;;;;;6.00;4.97;;;;;;;2.24;100.00;96214.06;5117806;28;20278;-57
2022/01/28 02:09:15;;;;;;;7.83;5.20;;;;;;;2.21;100.00;96217.41;5116808;28;20607;-62
2022/01/28 02:11:41;;;;;;;7.23;4.90;;;;;;;2.16;100.00;96223.00;5117145;28;20198;-62
2022/01/28 02:14:07;;;;;;;6.70;4.53;;;;;;;2.15;100.00;96226.81;5117248;28;20182;-62
2022/01/28 02:16:32;;;;;;;6.90;4.80;;;;;;;2.10;100.00;96224.31;5116597;28;20222;-62
2022/01/28 02:18:58;;;;;;;8.03;5.37;;;;;;;2.08;100.00;96215.75;5116966;28;20193;-62
2022/01/28 02:21:23;;;;;;;8.83;5.47;;;;;;;2.06;100.00;96228.78;5116668;28;20190;-62
2022/01/28 02:23:53;;;;;;;6.83;4.67;;;;;;;2.04;100.00;96239.09;5117060;28;20201;-55
2022/01/28 02:26:19;;;;;;;6.87;4.77;;;;;;;2.02;100.00;96235.94;5116859;28;20181;-51
2022/01/28 02:28:49;;;;;;;7.43;5.30;;;;;;;2.05;100.00;96231.81;5116757;27;20558;-50
2022/01/28 02:31:20;;;;;;;6.70;4.87;;;;;;;2.01;100.00;96237.03;5117239;28;20283;-51
2022/01/28 02:33:46;;;;;;;7.87;5.17;;;;;;;2.08;100.00;96241.94;5116916;28;20238;-53
2022/01/28 02:36:12;;;;;;;7.83;5.03;;;;;;;2.08;100.00;96240.00;5116929;28;20641;-53
2022/01/28 02:38:37;;;;;;;9.00;5.60;;;;;;;2.08;100.00;96253.47;5116337;28;20186;-51
2022/01/28 02:41:04;;;;;;;9.30;5.43;;;;;;;2.13;100.00;96253.28;5116762;28;20598;-65
2022/01/28 02:46:24;;;;;;;8.20;5.00;;;;;;;2.23;100.00;96266.34;5111026;28;20202;-56
2022/01/28 02:49:01;;;;;;;8.07;5.27;;;;;;;2.26;100.00;96265.69;5116745;28;20635;-56
2022/01/28 02:51:26;;;;;;;7.43;5.50;;;;;;;2.31;100.00;96265.53;5116708;28;20251;-56
2022/01/28 02:53:58;;;;;;;7.57;5.67;;;;;;;2.33;100.00;96276.75;5116259;28;20186;-56
2022/01/28 02:58:57;;;;;;;7.13;5.10;;;;;;;2.33;100.00;96282.13;5134652;28;20263;-69
2022/01/28 03:01:23;;;;;;;6.70;5.37;;;;;;;2.36;100.00;96275.28;5116671;28;20218;-57
2022/01/28 03:03:54;;;;;;;8.43;5.23;;;;;;;2.35;100.00;96279.91;5116350;28;20202;-56
2022/01/28 03:06:20;;;;;;;7.57;5.33;;;;;;;2.40;100.00;96284.28;5116103;28;20728;-55
2022/01/28 03:08:56;;;;;;;9.07;5.27;;;;;;;2.42;100.00;96279.38;5116307;28;20190;-55
2022/01/28 03:14:14;;;;;;;9.17;5.03;;;;;;;2.43;100.00;96287.13;5134355;28;20175;-56
2022/01/28 03:19:21;;;;;;;7.07;5.23;;;;;;;2.42;100.00;96290.16;5134525;28;20175;-66
2022/01/28 03:21:54;;;;;;;7.97;4.87;;;;;;;2.43;100.00;96280.94;5116145;28;20229;-53
2022/01/28 03:24:21;;;;;;;7.67;4.87;;;;;;;2.45;100.00;96287.56;5116465;28;20206;-55
2022/01/28 03:26:50;;;;;;;6.67;5.10;;;;;;;2.41;100.00;96292.06;5116029;28;20191;-53
2022/01/28 03:29:15;;;;;;;8.53;4.87;;;;;;;2.42;100.00;96290.94;5117866;28;20211;-54
2022/01/28 03:31:40;;;;;;;8.47;5.53;;;;;;;2.40;100.00;96293.19;5119470;28;20189;-55
2022/01/28 03:34:06;;;;;;;7.90;5.60;;;;;;;2.42;100.00;96282.88;5119533;28;20183;-51
2022/01/28 03:36:32;;;;;;;8.60;5.53;;;;;;;2.41;100.00;96292.06;5119059;28;20212;-66
2022/01/28 03:38:57;;;;;;;8.57;4.90;;;;;;;2.45;100.00;96319.91;5120122;28;20202;-46
2022/01/28 03:41:24;;;;;;;7.50;5.20;;;;;;;2.46;100.00;96302.66;5119386;28;20187;-49
2022/01/28 03:43:51;;;;;;;9.13;5.27;;;;;;;2.49;100.00;96314.69;5119907;28;20205;-45
2022/01/28 03:46:16;;;;;;;9.20;5.00;;;;;;;2.52;100.00;96322.88;5119746;28;20628;-46
2022/01/28 03:48:42;;;;;;;7.53;5.47;;;;;;;2.53;100.00;96318.28;5119438;28;20189;-49
2022/01/28 03:51:08;;;;;;;7.67;5.40;;;;;;;2.51;100.00;96317.81;5119079;28;20205;-46
2022/01/28 03:53:33;;;;;;;7.43;5.13;;;;;;;2.49;100.00;96322.75;5119451;28;20210;-46
2022/01/28 03:55:59;;;;;;;6.93;4.73;;;;;;;2.51;100.00;96326.69;5119591;28;20184;-49
2022/01/28 03:58:25;;;;;;;9.30;5.10;;;;;;;2.55;100.00;96333.00;5119188;28;20189;-56
2022/01/28 04:00:53;;;;;;;7.80;5.10;;;;;;;2.52;100.00;96322.88;5137320;28;20179;-56
2022/01/28 04:13:47;;;;;;;6.17;4.63;;;;;;;2.55;100.00;96343.78;5136972;28;20175;-68
2022/01/28 04:18:57;;;;;;;6.00;4.20;;;;;;;2.62;100.00;96338.66;5137636;28;20651;-57
2022/01/28 04:21:22;;;;;;;7.30;4.70;;;;;;;2.62;100.00;96333.28;5118661;28;20544;-57
2022/01/28 04:23:48;;;;;;;6.87;4.90;;;;;;;2.60;100.00;96329.34;5118549;28;20214;-57
2022/01/28 04:26:13;;;;;;;8.47;5.03;;;;;;;2.57;100.00;96335.38;5118772;28;20195;-55
2022/01/28 04:28:39;;;;;;;8.77;4.43;;;;;;;2.59;100.00;96344.72;5118622;28;20245;-56
2022/01/28 04:31:04;;;;;;;5.93;4.70;;;;;;;2.55;100.00;96348.41;5118492;28;20222;-56
2022/01/28 04:33:30;;;;;;;8.20;4.67;;;;;;;2.58;100.00;96353.91;5118695;28;20210;-66
2022/01/28 04:35:56;;;;;;;6.37;4.43;;;;;;;2.57;100.00;96346.97;5118957;28;20186;-57
2022/01/28 04:41:24;;;;;;;7.93;4.93;;;;;;;2.57;100.00;96365.81;5136471;27;20333;-56
2022/01/28 04:43:48;;;;;;;5.87;4.43;;;;;;;2.54;100.00;96369.16;5136297;28;20271;-55
2022/01/28 04:48:50;;;;;;;9.03;4.97;;;;;;;2.49;100.00;96355.09;5136494;28;20651;-56
2022/01/28 04:53:57;;;;;;;6.47;4.30;;;;;;;2.42;100.00;96366.41;5136435;28;20178;-51
2022/01/28 04:56:45;;;;;;;6.20;4.50;;;;;;;2.35;100.00;96366.13;5118082;28;20187;-51
2022/01/28 05:28:17;;;;;;;6.97;4.80;;;;;;;2.37;100.00;96355.81;5135933;28;20189;-67
2022/01/28 05:30:42;;;;;;;7.73;4.70;;;;;;;2.40;100.00;96357.03;5117449;28;20275;-65
2022/01/28 05:33:08;;;;;;;7.17;4.63;;;;;;;2.41;100.00;96347.88;5117605;28;20191;-65
2022/01/28 05:35:33;;;;;;;6.77;4.90;;;;;;;2.39;100.00;96356.28;5117483;28;20179;-65
2022/01/28 05:37:58;;;;;;;7.10;4.93;;;;;;;2.39;100.00;96367.06;5117333;28;20190;-65
2022/01/28 05:40:24;;;;;;;6.93;4.80;;;;;;;2.42;100.00;96361.03;5117269;28;20215;-66
2022/01/28 05:42:49;;;;;;;7.50;4.87;;;;;;;2.41;100.00;96380.97;5117448;28;20214;-65
2022/01/28 05:45:14;;;;;;;6.40;4.43;;;;;;;2.44;100.00;96384.94;5117560;28;20183;-50
2022/01/28 05:47:40;;;;;;;5.57;4.27;;;;;;;2.51;100.00;96383.28;5117317;28;20186;-56
2022/01/28 05:50:06;;;;;;;5.87;4.47;;;;;;;2.49;100.00;96388.25;5117265;28;20186;-56
2022/01/28 05:52:32;;;;;;;8.30;4.73;;;;;;;2.48;100.00;96391.25;5116386;28;20210;-57
2022/01/28 05:54:58;;;;;;;6.93;4.47;;;;;;;2.46;100.00;96393.47;5117404;28;20179;-56
2022/01/28 05:57:23;;;;;;;7.97;4.90;;;;;;;2.42;100.00;96404.13;5117424;28;20276;-57
2022/01/28 05:59:49;;;;;;;5.23;4.00;;;;;;;2.33;100.00;96391.84;5117188;28;20606;-56
2022/01/28 06:02:14;;;;;;;6.93;4.50;;;;;;;2.26;100.00;96376.16;5117122;28;20210;-55
2022/01/28 06:04:39;;;;;;;7.13;4.40;;;;;;;2.25;100.00;96393.44;5116964;28;20270;-50
2022/01/28 06:07:05;;;;;;;8.50;4.80;;;;;;;2.28;100.00;96408.97;5116875;28;20203;-50
2022/01/28 06:09:30;;;;;;;7.23;4.70;;;;;;;2.32;100.00;96401.00;5116975;28;20278;-50
2022/01/28 06:11:55;;;;;;;8.03;4.77;;;;;;;2.28;100.00;96382.03;5116740;28;20273;-51
2022/01/28 06:14:21;;;;;;;7.20;4.63;;;;;;;2.32;100.00;96409.88;5117164;28;20265;-52
2022/01/28 06:16:46;;;;;;;11.47;6.17;;;;;;;2.39;100.00;96431.72;5116980;28;20219;-53
2022/01/28 06:19:11;;;;;;;7.63;5.17;;;;;;;2.50;100.00;96421.34;5117296;28;20226;-51
2022/01/28 06:21:36;;;;;;;6.53;4.50;;;;;;;2.44;100.00;96434.22;5116456;28;20189;-52
2022/01/28 06:24:02;;;;;;;5.73;4.23;;;;;;;2.44;100.00;96434.22;5116510;28;20538;-53
2022/01/28 06:26:27;;;;;;;9.40;6.23;;;;;;;2.48;100.00;96445.94;5116473;28;20230;-57
2022/01/28 06:28:53;;;;;;;12.20;6.80;;;;;;;2.52;100.00;96457.63;5116503;27;20292;-54
2022/01/28 06:31:19;;;;;;;8.23;5.23;;;;;;;2.47;100.00;96463.22;5116670;28;20184;-54
2022/01/28 06:33:44;;;;;;;6.53;4.83;;;;;;;2.49;100.00;96462.91;5116492;28;20237;-55
2022/01/28 06:36:10;;;;;;;9.80;5.00;;;;;;;2.48;100.00;96478.28;5116472;28;20175;-57
2022/01/28 06:38:35;;;;;;;8.90;5.03;;;;;;;2.41;100.00;96478.00;5116750;28;20186;-55
2022/01/28 06:41:00;;;;;;;6.70;4.80;;;;;;;2.38;100.00;96477.84;5116411;28;20186;-66
2022/01/28 06:43:26;;;;;;;6.83;4.83;;;;;;;2.40;100.00;96489.09;5116309;28;20199;-52
2022/01/28 06:45:51;;;;;;;6.60;4.57;;;;;;;2.42;100.00;96482.28;5116320;28;20186;-50
2022/01/28 06:48:18;;;;;;;7.03;5.20;;;;;;;2.39;100.00;96480.22;5116522;28;20191;-50
2022/01/28 06:50:44;;;;;;;8.13;5.03;;;;;;;2.49;100.00;96479.88;5116229;28;20183;-49
2022/01/28 06:53:11;;;;;;;9.30;4.60;;;;;;;2.47;100.00;96482.09;5116049;28;20179;-53
2022/01/28 06:55:37;;;;;;;6.87;5.07;;;;;;;2.46;100.00;96485.09;5116182;28;20282;-52
2022/01/28 06:58:04;;;;;;;8.10;5.57;;;;;;;2.43;100.00;96483.84;5116006;28;20186;-48
2022/01/28 07:00:36;;;;;;;7.10;4.60;;;;;;;2.39;100.00;96493.72;5116108;28;20183;-50
2022/01/28 07:03:05;;;;;;;7.17;4.50;;;;;;;2.41;100.00;96499.53;5116338;28;20202;-56
2022/01/28 07:05:31;;;;;;;6.40;4.73;;;;;;;2.37;100.00;96504.00;5119585;28;20285;-56
2022/01/28 07:07:56;;;;;;;6.60;4.80;;;;;;;2.38;100.00;96497.53;5119697;28;20265;-56
2022/01/28 07:10:22;;;;;;;6.70;4.47;;;;;;;2.38;100.00;96500.22;5119748;28;20619;-56
2022/01/28 07:12:47;;;;;;;8.73;5.00;;;;;;;2.42;100.00;96503.84;5120205;28;20201;-56
2022/01/28 07:15:12;;;;;;;6.80;4.87;;;;;;;2.47;100.00;96498.25;5120198;28;20179;-57
2022/01/28 07:17:38;;;;;;;7.27;5.00;;;;;;;2.46;100.00;96502.09;5120012;28;20242;-52
2022/01/28 07:20:05;;;;;;;10.47;5.43;;;;;;;2.32;100.00;96501.50;5137974;28;20187;-54
2022/01/28 07:22:30;;;;;;;7.83;5.40;;;;;;;2.16;100.00;96518.50;5119351;28;20203;-50
2022/01/28 07:24:55;;;;;;;7.03;4.80;;;;;;;1.91;100.00;96500.53;5119909;28;20196;-55
2022/01/28 07:27:21;;;;;;;7.70;5.10;;;;;;;1.76;100.00;96515.28;5119376;28;20186;-49
2022/01/28 07:29:48;;;;;;;6.67;4.50;;;;;;;1.64;100.00;96522.44;5119289;28;20207;-49
2022/01/28 07:32:17;;;;;;;8.80;5.10;;;;;;;1.57;100.00;96511.34;5119836;28;20657;-52
2022/01/28 07:34:43;;;;;;;7.17;4.87;;;;;;;1.51;100.00;96518.78;5119343;28;20223;-72
2022/01/28 07:37:08;;;;;;;7.33;5.03;;;;;;;1.50;100.00;96517.22;5119449;28;20277;-52
2022/01/28 07:39:33;;;;;;;7.27;5.00;;;;;;;1.48;100.00;96529.38;5119035;28;20560;-48
2022/01/28 07:41:59;;;;;;;7.30;4.90;;;;;;;1.53;100.00;96526.56;5119372;28;20197;-51
2022/01/28 07:44:24;;;;;;;7.33;5.10;;;;;;;1.59;100.00;96518.00;5119189;28;20188;-48
2022/01/28 07:46:49;;;;;;;7.80;5.30;;;;;;;1.69;100.00;96523.06;5119630;28;20223;-50
2022/01/28 07:49:15;;;;;;;10.53;6.07;;;;;;;1.73;100.00;96525.88;5119593;28;20200;-52
2022/01/28 07:51:41;;;;;;;7.63;5.60;;;;;;;1.79;100.00;96538.84;5119076;28;20185;-50
2022/01/28 07:54:08;;;;;;;10.30;5.40;;;;;;;1.85;100.00;96534.91;5119108;28;20188;-58
2022/01/28 07:56:33;;;;;;;8.23;5.43;;;;;;;1.84;100.00;96532.53;5119045;28;20189;-53
2022/01/28 07:58:59;;;;;;;7.90;5.30;;;;;;;1.95;100.00;96531.06;5119059;28;20182;-52
2022/01/28 08:01:24;;;;;;;8.23;5.83;;;;;;;1.98;100.00;96533.94;5118991;28;20196;-55
2022/01/28 08:03:49;;;;;;;7.53;5.57;;;;;;;2.01;100.00;96538.66;5118793;28;20215;-55
2022/01/28 08:06:15;;;;;;;8.17;5.30;;;;;;;2.04;100.00;96546.09;5119041;28;20189;-55
2022/01/28 08:08:40;;;;;;;6.70;4.90;;;;;;;2.08;100.00;96541.66;5118772;28;20190;-55
2022/01/28 08:11:06;;;;;;;8.23;5.00;;;;;;;2.09;100.00;96545.16;5118732;28;20193;-53
2022/01/28 08:13:31;;;;;;;8.30;5.30;;;;;;;2.14;100.00;96548.47;5118897;28;20179;-56
2022/01/28 08:15:56;;;;;;;8.83;5.20;;;;;;;2.16;100.00;96557.03;5119222;28;20192;-58
2022/01/28 08:18:22;;;;;;;6.70;4.90;;;;;;;2.17;100.00;96555.91;5119162;28;20222;-56
2022/01/28 08:20:47;;;;;;;9.20;5.13;;;;;;;2.17;100.00;96558.59;5119036;28;20304;-56
2022/01/28 08:23:14;;;;;;;8.53;5.13;;;;;;;2.20;100.00;96563.34;5118549;28;20301;-57
2022/01/28 08:25:40;;;;;;;8.97;4.67;;;;;;;2.26;100.00;96562.06;5118451;28;20198;-56
2022/01/28 08:28:05;;;;;;;7.93;5.13;;;;;;;2.31;100.00;96567.28;5119041;28;20324;-54
2022/01/28 08:30:33;;;;;;;7.03;4.87;;;;;;;2.39;100.00;96571.06;5118295;28;20248;-62
2022/01/28 08:32:58;;;;;;;6.47;4.60;;;;;;;2.45;100.00;96564.38;5118587;28;20217;-53
2022/01/28 08:35:31;;;;;;;8.13;4.63;;;;;;;2.49;100.00;96566.13;5118431;28;20190;-49
2022/01/28 08:37:58;;;;;;;7.87;4.80;;;;;;;2.47;100.00;96564.84;5119444;28;20553;-52
2022/01/28 08:40:26;;;;;;;8.60;4.73;;;;;;;2.44;100.00;96558.19;5118551;28;20271;-53
2022/01/28 08:42:51;;;;;;;9.53;4.40;;;;;;;2.38;100.00;96575.66;5118250;28;20241;-51
2022/01/28 08:45:17;;;;;;;6.93;4.40;;;;;;;2.37;100.00;96579.47;5118309;28;20187;-49
2022/01/28 08:47:42;;;;;;;9.27;4.60;;;;;;;2.34;100.00;96574.72;5118266;28;20240;-50
2022/01/28 08:50:08;;;;;;;6.17;4.30;;;;;;;2.36;100.00;96582.47;5118221;28;20218;-55
2022/01/28 08:52:34;;;;;;;7.43;4.70;;;;;;;2.43;100.00;96582.78;5118333;28;20264;-64
2022/01/28 08:55:00;;;;;;;7.90;5.20;;;;;;;2.41;100.00;96585.78;5118267;28;20215;-64
2022/01/28 08:57:25;;;;;;;7.40;4.40;;;;;;;2.42;100.00;96598.16;5118385;28;20277;-64
2022/01/28 08:59:50;;;;;;;7.87;4.47;;;;;;;2.37;100.00;96597.56;5118166;28;20247;-65
2022/01/28 09:02:15;;;;;;;6.47;3.53;;;;;;;2.43;100.00;96599.75;5118406;28;20206;-65
2022/01/28 09:04:41;;;;;;;7.97;4.20;;;;;;;2.40;100.00;96595.00;5118075;28;20187;-65
2022/01/28 09:07:06;;;;;;;7.23;4.37;;;;;;;2.47;100.00;96607.97;5118256;28;20190;-51
2022/01/28 09:09:32;;;;;;;9.17;4.90;;;;;;;2.46;100.00;96609.88;5117844;28;20240;-54
2022/01/28 09:12:08;;;;;;;5.93;3.67;;;;;;;2.50;100.00;96604.63;5117466;28;20177;-55
2022/01/28 09:14:34;;;;;;;6.53;4.00;;;;;;;2.51;100.00;96600.81;5117434;28;20181;-57
2022/01/28 09:16:59;;;;;;;7.00;4.53;;;;;;;2.58;100.00;96610.00;5117641;28;20214;-53
2022/01/28 09:19:25;;;;;;;6.77;4.07;;;;;;;2.74;100.00;96612.97;5117591;28;20276;-53
2022/01/28 09:21:51;;;;;;;7.93;4.37;;;;;;;2.77;100.00;96615.78;5118142;28;20187;-50
2022/01/28 09:24:17;;;;;;;9.63;4.43;;;;;;;2.80;100.00;96609.75;5117536;28;20632;-53
2022/01/28 09:26:43;;;;;;;7.47;4.20;;;;;;;2.83;100.00;96603.72;5116714;28;20286;-54
2022/01/28 09:29:08;;;;;;;9.13;4.00;;;;;;;2.91;100.00;96604.78;5117717;28;20203;-53
2022/01/28 09:31:34;;;;;;;7.80;3.97;;;;;;;3.08;100.00;96616.31;5117974;28;20279;-57
2022/01/28 09:34:00;;;;;;;5.97;4.07;;;;;;;3.08;100.00;96610.91;5117453;28;20216;-56
2022/01/28 09:36:26;;;;;;;5.93;3.93;;;;;;;3.20;100.00;96616.41;5118085;28;20190;-53
2022/01/28 09:38:51;;;;;;;6.10;4.27;;;;;;;3.36;100.00;96622.81;5117315;28;20186;-53
2022/01/28 09:41:16;;;;;;;5.73;4.00;;;;;;;3.44;100.00;96629.28;5117452;28;20240;-53
2022/01/28 09:43:46;;;;;;;8.33;5.17;;;;;;;3.48;100.00;96630.22;5117103;28;20213;-56
2022/01/28 09:46:12;;;;;;;5.57;3.83;;;;;;;3.60;100.00;96630.28;5117406;28;20211;-53
2022/01/28 09:48:39;;;;;;;7.43;4.30;;;;;;;3.60;100.00;96634.91;5117380;28;20190;-63
2022/01/28 09:51:04;;;;;;;6.43;3.57;;;;;;;3.58;100.00;96624.44;5117276;28;20223;-63
2022/01/28 09:53:30;;;;;;;4.47;3.57;;;;;;;3.53;100.00;96633.50;5117245;28;20285;-64
2022/01/28 09:55:56;;;;;;;5.17;3.67;;;;;;;3.36;100.00;96647.09;5117631;28;20182;-62
2022/01/28 09:58:22;;;;;;;5.03;3.83;;;;;;;3.34;100.00;96637.75;5117042;28;20187;-65
2022/01/28 10:00:48;;;;;;;6.60;3.73;;;;;;;3.24;100.00;96647.00;5117230;28;20194;-65
2022/01/28 10:03:15;;;;;;;7.53;3.90;;;;;;;3.23;100.00;96639.25;5117172;28;20238;-59
2022/01/28 10:05:42;;;;;;;6.33;4.30;;;;;;;3.25;100.00;96643.19;5117156;28;20183;-48
2022/01/28 10:08:10;;;;;;;10.63;4.57;;;;;;;3.20;100.00;96637.19;5116839;28;20187;-49
2022/01/28 10:11:01;;;;;;;5.33;3.83;;;;;;;3.23;100.00;96633.84;5117495;28;20538;-55
2022/01/28 10:13:48;;;;;;;9.13;4.23;;;;;;;3.30;100.00;96624.13;5116748;28;20186;-52
2022/01/28 10:16:16;;;;;;;7.93;4.03;;;;;;;3.31;100.00;96631.09;5117059;28;20555;-52
2022/01/28 10:18:44;;;;;;;5.40;3.80;;;;;;;3.33;100.00;96636.97;5117221;28;20183;-54
2022/01/28 10:21:18;;;;;;;7.27;3.70;;;;;;;3.38;100.00;96639.47;5116776;28;20588;-60
2022/01/28 10:24:02;;;;;;;5.13;3.30;;;;;;;3.37;100.00;96635.19;5116697;28;20213;-53
2022/01/28 10:27:06;;;;;;;9.83;4.13;;;;;;;3.40;100.00;96639.94;5134825;28;20550;-55
2022/01/28 10:29:42;;;;;;;6.83;3.60;;;;;;;3.46;100.00;96638.63;5113741;28;20707;-56
2022/01/28 10:32:12;;;;;;;6.23;3.90;;;;;;;3.38;100.00;96638.69;5116621;28;20640;-55
2022/01/28 10:34:49;;;;;;;6.50;3.80;;;;;;;3.36;100.00;96630.91;5116838;28;20183;-56
2022/01/28 10:37:21;;;;;;;7.83;3.27;;;;;;;3.27;100.00;96635.56;5116781;27;20182;-53
2022/01/28 10:39:58;;;;;;;7.47;3.27;;;;;;;3.29;100.00;96637.94;5117073;28;20283;-57
2022/01/28 10:42:24;;;;;;;6.87;4.00;;;;;;;3.26;100.00;96647.50;5116679;28;20215;-61
2022/01/28 10:44:55;;;;;;;6.47;3.30;;;;;;;3.32;100.00;96648.09;5117241;28;20206;-63
2022/01/28 10:47:45;;;;;;;6.97;3.53;;;;;;;3.30;100.00;96651.13;5099471;28;20197;-67
2022/01/28 10:50:30;;;;;;;6.77;3.47;;;;;;;3.33;100.00;96645.06;5116628;28;20190;-63
2022/01/28 10:53:09;;;;;;;5.33;3.63;;;;;;;3.34;100.00;96643.94;5116112;28;20383;-64
2022/01/28 10:55:40;;;;;;;5.90;3.43;;;;;;;3.39;100.00;96641.06;5116651;28;20544;-66
2022/01/28 10:58:08;;;;;;;5.37;3.33;;;;;;;3.39;100.00;96654.53;5116897;28;20235;-58
2022/01/28 11:00:38;;;;;;;6.00;3.47;;;;;;;3.47;100.00;96659.09;5116283;28;20194;-51
2022/01/28 11:03:06;;;;;;;7.03;3.13;;;;;;;3.51;100.00;96662.72;5115864;28;20206;-50
2022/01/28 11:05:33;;;;;;;6.03;3.50;;;;;;;3.60;100.00;96653.81;5116328;28;20190;-53
2022/01/28 11:08:00;;;;;;;9.00;3.57;;;;;;;3.63;100.00;96655.84;5116231;28;20220;-50
2022/01/28 11:10:26;;;;;;;3.93;3.13;;;;;;;3.67;100.00;96656.78;5116266;28;20248;-52
2022/01/28 11:12:52;;;;;;;6.47;3.47;;;;;;;3.56;100.00;96650.97;5115991;28;20187;-51
2022/01/28 11:15:18;;;;;;;6.77;3.30;;;;;;;3.64;100.00;96657.44;5116322;28;20179;-58
2022/01/28 11:17:44;;;;;;;4.47;3.17;;;;;;;3.67;100.00;96654.09;5116181;28;20187;-65
2022/01/28 11:20:12;;;;;;;6.43;3.30;;;;;;;3.71;100.00;96655.78;5115863;28;20205;-52
2022/01/28 11:23:30;;;;;;;5.53;3.53;;;;;;;3.69;100.00;96657.22;5115885;28;20203;-48
2022/01/28 11:26:23;;;;;;;9.07;3.67;;;;;;;3.70;100.00;96648.00;5077246;28;20663;-52
2022/01/28 11:28:52;;;;;;;7.53;3.37;;;;;;;3.75;100.00;96655.94;5115658;27;20183;-52
2022/01/28 11:31:40;;;;;;;8.77;3.97;;;;;;;3.72;100.00;96654.69;5116014;28;20194;-51
2022/01/28 11:34:28;;;;;;;5.07;3.80;;;;;;;3.68;100.00;96661.84;5116041;28;20279;-57
2022/01/28 11:37:18;;;;;;;9.60;5.67;;;;;;;3.67;100.00;96664.88;5116357;28;20188;-55
2022/01/28 11:39:46;;;;;;;6.00;3.07;;;;;;;3.71;100.00;96671.22;5115685;28;20190;-53
2022/01/28 11:42:16;;;;;;;7.60;3.20;;;;;;;3.71;100.00;96668.50;5115606;28;20234;-51
2022/01/28 11:44:51;;;;;;;5.33;2.80;;;;;;;3.71;100.00;96657.72;5116023;28;20547;-54
2022/01/28 11:47:31;;;;;;;4.67;2.70;;;;;;;3.74;100.00;96654.31;5115427;28;20183;-55
2022/01/28 11:50:15;;;;;;;5.13;3.10;;;;;;;3.76;100.00;96658.31;5117474;28;20190;-56
2022/01/28 11:52:41;;;;;;;4.63;2.50;;;;;;;3.73;100.00;96647.34;5119605;28;20183;-56
2022/01/28 11:55:15;;;;;;;7.53;2.77;;;;;;;3.83;100.00;96658.56;5119215;28;20218;-56
2022/01/28 11:57:51;;;;;;;4.83;2.27;;;;;;;3.85;100.00;96645.50;5119411;28;20182;-53
2022/01/28 12:00:22;;;;;;;6.50;2.57;;;;;;;3.82;100.00;96642.69;5118890;28;20190;-53
2022/01/28 12:02:52;;;;;;;5.27;2.80;;;;;;;3.86;100.00;96643.63;5118956;28;20297;-54
2022/01/28 12:05:43;;;;;;;7.33;2.87;;;;;;;3.80;100.00;96655.72;5119002;28;20225;-58
2022/01/28 12:08:10;;;;;;;4.43;2.50;;;;;;;3.79;100.00;96659.56;5118524;28;20209;-56
2022/01/28 12:10:42;;;;;;;5.63;3.07;;;;;;;3.84;100.00;96664.75;5118914;28;20187;-61
2022/01/28 12:13:12;;;;;;;7.40;3.10;;;;;;;3.86;100.00;96657.13;5118647;28;20187;-57
2022/01/28 12:15:58;;;;;;;9.33;3.10;;;;;;;3.87;100.00;96653.28;5118478;28;20186;-55
2022/01/28 12:18:24;;;;;;;15.20;6.20;;;;;;;3.90;100.00;96655.34;5119139;28;20187;-57
2022/01/28 12:20:50;;;;;;;5.33;2.73;;;;;;;3.90;100.00;96644.53;5118521;28;20194;-57
2022/01/28 12:23:18;;;;;;;8.77;4.77;;;;;;;4.00;100.00;96647.63;5118943;28;20210;-56
2022/01/28 12:25:44;;;;;;;6.93;2.83;;;;;;;3.96;100.00;96643.22;5118717;28;20207;-56
2022/01/28 12:28:15;;;;;;;8.47;4.70;;;;;;;3.99;100.00;96656.06;5119415;28;20190;-55
2022/01/28 12:30:47;;;;;;;5.07;2.97;;;;;;;4.04;100.00;96653.19;5118489;28;20214;-68
2022/01/28 12:33:14;;;;;;;4.57;2.70;;;;;;;4.22;100.00;96635.69;5118284;28;20183;-59
2022/01/28 12:35:41;;;;;;;4.97;3.13;;;;;;;4.19;100.00;96644.47;5118327;28;20190;-59
2022/01/28 12:38:08;;;;;;;4.90;2.73;;;;;;;4.30;100.00;96651.03;5118446;28;20274;-60
2022/01/28 12:40:41;;;;;;;7.00;3.70;;;;;;;4.30;100.00;96651.81;5118481;28;20191;-57
2022/01/28 12:43:07;;;;;;;10.50;5.33;;;;;;;4.28;100.00;96645.16;5118316;28;20206;-57
2022/01/28 12:45:34;;;;;;;7.07;3.33;;;;;;;4.25;100.00;96648.53;5118242;28;20191;-59
2022/01/28 12:48:00;;;;;;;5.67;3.30;;;;;;;4.19;100.00;96649.88;5118097;28;20208;-63
2022/01/28 12:50:28;;;;;;;6.70;2.83;;;;;;;4.02;100.00;96641.91;5118531;28;20199;-56
2022/01/28 12:52:54;;;;;;;4.77;2.80;;;;;;;3.93;100.00;96636.56;5118448;28;20327;-57
2022/01/28 12:55:19;;;;;;;6.30;2.90;;;;;;;3.89;100.00;96627.53;5118688;28;20232;-57
2022/01/28 12:57:46;;;;;;;4.67;3.20;;;;;;;3.77;100.00;96629.38;5118273;28;20539;-54
2022/01/28 13:00:13;;;;;;;4.77;3.30;;;;;;;3.65;100.00;96649.00;5118199;28;20187;-55
2022/01/28 13:02:41;;;;;;;7.17;3.43;;;;;;;3.49;100.00;96656.88;5118095;28;20203;-55
2022/01/28 13:10:31;;;;;;;6.83;3.50;;;;;;;3.46;100.00;96654.03;5106949;28;20199;-54
2022/01/28 13:13:12;;;;;;;7.33;4.23;;;;;;;3.64;100.00;96649.34;5118123;28;20190;-52
2022/01/28 13:15:39;;;;;;;6.50;3.53;;;;;;;3.68;100.00;96655.66;5118493;28;20187;-54